Time;durP1;ratioP1;P1;durP2;ratioP2;P2;SDS_P1;SDS_P2;PMS_P1;PMS_P2;Temp;Humidity;BMP_temperature;BMP_pressure;BME280_temperature;BME280_humidity;BME280_pressure;Samples;Min_cycle;Max_cycle;Signal;HPM_P1;HPM_P2
2023/04/19 00:00:41;;;;;;;9.85;5.38;;;5.10;99.90;;;;;;5110337;28;20033;-81
2023/04/19 00:03:09;;;;;;;9.82;4.97;;;5.10;99.90;;;;;;5088535;28;20027;-81
2023/04/19 00:05:37;;;;;;;9.55;5.97;;;5.10;99.90;;;;;;5080683;28;20020;-81
2023/04/19 00:08:03;;;;;;;6.20;4.85;;;5.10;99.90;;;;;;5083939;28;20024;-81
2023/04/19 00:10:28;;;;;;;5.90;4.60;;;5.20;99.90;;;;;;5089734;28;20028;-82
2023/04/19 00:12:54;;;;;;;7.38;4.78;;;5.10;99.90;;;;;;5092724;28;20062;-81
2023/04/19 00:15:20;;;;;;;7.82;4.55;;;5.10;99.90;;;;;;5096425;28;20654;-81
2023/04/19 00:17:45;;;;;;;7.70;4.38;;;5.10;99.90;;;;;;5087400;28;20311;-82
2023/04/19 00:20:12;;;;;;;7.13;4.25;;;5.10;99.90;;;;;;5093121;28;20012;-82
2023/04/19 00:22:38;;;;;;;6.18;3.88;;;5.10;99.90;;;;;;5096685;28;20024;-81
2023/04/19 00:25:04;;;;;;;7.28;4.15;;;5.10;99.90;;;;;;5081953;28;20020;-82
2023/04/19 00:27:29;;;;;;;6.05;4.30;;;5.10;99.90;;;;;;5076199;28;20029;-83
2023/04/19 00:29:56;;;;;;;5.78;3.88;;;5.10;99.90;;;;;;5085577;28;20024;-82
2023/04/19 00:32:22;;;;;;;5.32;4.30;;;5.00;99.90;;;;;;5081860;28;20032;-82
2023/04/19 00:34:48;;;;;;;6.38;3.72;;;5.00;99.90;;;;;;5076524;28;20046;-82
2023/04/19 00:37:13;;;;;;;5.95;3.70;;;5.00;99.90;;;;;;5082258;28;20020;-81
2023/04/19 00:39:39;;;;;;;5.90;4.00;;;5.00;99.90;;;;;;5104173;28;20025;-82
2023/04/19 00:42:05;;;;;;;5.78;3.90;;;4.90;99.90;;;;;;5094454;28;20526;-83
2023/04/19 00:44:30;;;;;;;6.38;4.07;;;4.90;99.90;;;;;;5087846;28;20034;-81
2023/04/19 00:46:56;;;;;;;5.22;3.83;;;4.90;99.90;;;;;;5100897;28;20039;-81
2023/04/19 00:49:23;;;;;;;4.30;3.20;;;4.90;99.90;;;;;;5083954;28;20073;-81
2023/04/19 00:51:49;;;;;;;8.18;3.47;;;4.90;99.90;;;;;;5091979;28;20028;-82
2023/04/19 00:54:16;;;;;;;5.28;3.45;;;4.90;99.90;;;;;;5081985;28;20036;-82
2023/04/19 00:56:43;;;;;;;5.68;3.88;;;4.90;99.90;;;;;;5092396;28;20024;-82
2023/04/19 00:59:10;;;;;;;4.80;2.78;;;4.90;99.90;;;;;;5082747;28;20367;-81
2023/04/19 01:01:37;;;;;;;6.82;3.90;;;4.80;99.90;;;;;;5085050;28;20032;-81
2023/04/19 01:04:03;;;;;;;3.65;3.20;;;4.80;99.90;;;;;;5077890;28;20487;-82
2023/04/19 01:06:30;;;;;;;6.07;3.83;;;4.80;99.90;;;;;;5080128;28;20013;-82
2023/04/19 01:08:56;;;;;;;5.43;3.63;;;4.80;99.90;;;;;;5090696;28;20081;-81
2023/04/19 01:11:28;;;;;;;5.72;3.30;;;4.80;99.90;;;;;;5100815;28;20024;-82
2023/04/19 01:13:55;;;;;;;4.78;3.47;;;4.80;99.90;;;;;;5110218;28;20020;-82
2023/04/19 01:16:20;;;;;;;6.22;3.30;;;4.80;99.90;;;;;;5092920;28;20368;-82
2023/04/19 01:18:46;;;;;;;8.48;3.30;;;4.70;99.90;;;;;;5080122;28;20043;-82
2023/04/19 01:21:11;;;;;;;6.20;3.25;;;4.70;99.90;;;;;;5089865;28;20094;-81
2023/04/19 01:23:38;;;;;;;5.20;3.85;;;4.70;99.90;;;;;;5091278;28;20019;-81
2023/04/19 01:26:04;;;;;;;5.03;3.30;;;4.70;99.90;;;;;;5086268;28;20103;-81
2023/04/19 01:28:30;;;;;;;4.05;2.83;;;4.70;99.90;;;;;;5097499;28;20020;-82
2023/04/19 01:30:56;;;;;;;6.57;3.25;;;4.60;99.90;;;;;;5086150;28;20473;-82
2023/04/19 01:33:22;;;;;;;3.83;3.00;;;4.60;99.90;;;;;;5084734;28;20028;-81
2023/04/19 01:35:48;;;;;;;4.63;3.35;;;4.60;99.90;;;;;;5088023;28;20382;-82
2023/04/19 01:38:14;;;;;;;6.50;3.90;;;4.50;99.90;;;;;;5084386;28;20107;-82
2023/04/19 01:40:40;;;;;;;5.65;4.18;;;4.40;99.90;;;;;;5082820;28;20083;-80
2023/04/19 01:43:06;;;;;;;5.60;3.65;;;4.40;99.90;;;;;;5092037;28;20048;-81
2023/04/19 01:45:32;;;;;;;5.38;3.42;;;4.40;99.90;;;;;;5091986;28;20665;-82
2023/04/19 01:48:00;;;;;;;5.18;4.13;;;4.30;99.90;;;;;;5101296;28;20017;-81
2023/04/19 01:50:26;;;;;;;4.53;3.97;;;4.30;99.90;;;;;;5085858;28;20051;-82
2023/04/19 01:52:51;;;;;;;6.35;3.95;;;4.20;99.90;;;;;;5084662;28;20013;-81
2023/04/19 01:55:17;;;;;;;4.93;3.65;;;4.20;99.90;;;;;;5081661;28;20028;-82
2023/04/19 01:57:43;;;;;;;4.10;3.53;;;4.10;99.90;;;;;;5092125;28;20033;-82
2023/04/19 02:00:09;;;;;;;6.00;3.70;;;4.10;99.90;;;;;;5090817;28;20108;-81
2023/04/19 02:02:37;;;;;;;5.65;3.58;;;4.10;99.90;;;;;;5104832;28;20016;-82
2023/04/19 02:05:03;;;;;;;5.90;4.03;;;4.00;99.90;;;;;;5090250;28;20028;-81
2023/04/19 02:07:29;;;;;;;8.02;4.85;;;4.00;99.90;;;;;;5097190;28;20404;-81
2023/04/19 02:09:55;;;;;;;5.70;3.90;;;4.00;99.90;;;;;;5091365;28;20036;-81
2023/04/19 02:12:20;;;;;;;9.52;4.22;;;3.90;99.90;;;;;;5081200;28;20083;-83
2023/04/19 02:14:46;;;;;;;5.32;3.55;;;3.90;99.90;;;;;;5080184;28;20032;-82
2023/04/19 02:17:11;;;;;;;5.55;4.22;;;3.90;99.90;;;;;;5075131;28;20126;-82
2023/04/19 02:19:37;;;;;;;7.63;4.05;;;3.80;99.90;;;;;;5098629;28;20094;-81
2023/04/19 02:22:02;;;;;;;5.22;3.70;;;3.80;99.90;;;;;;5080321;28;20023;-81
2023/04/19 02:24:28;;;;;;;7.40;4.28;;;3.80;99.90;;;;;;5078599;28;20016;-82
2023/04/19 02:26:53;;;;;;;5.75;3.85;;;3.80;99.90;;;;;;5090490;28;20044;-82
2023/04/19 02:29:19;;;;;;;6.60;4.40;;;3.80;99.90;;;;;;5095027;28;20036;-81
2023/04/19 02:31:45;;;;;;;6.07;3.92;;;3.80;99.90;;;;;;5091266;28;20048;-82
2023/04/19 02:34:11;;;;;;;5.00;3.65;;;3.80;99.90;;;;;;5082688;28;20074;-81
2023/04/19 02:36:37;;;;;;;6.22;4.03;;;3.80;99.90;;;;;;5085472;28;20499;-81
2023/04/19 02:39:05;;;;;;;5.05;3.25;;;3.80;99.90;;;;;;5090173;28;20027;-82
2023/04/19 02:41:31;;;;;;;5.40;3.75;;;3.80;99.90;;;;;;5090352;28;20013;-82
2023/04/19 02:43:56;;;;;;;4.50;3.33;;;3.80;99.90;;;;;;5088620;28;20020;-82
2023/04/19 02:46:22;;;;;;;12.40;3.95;;;3.80;99.90;;;;;;5090842;28;20027;-81
2023/04/19 02:48:47;;;;;;;4.93;3.58;;;3.80;99.90;;;;;;5088292;28;20023;-83
2023/04/19 02:51:16;;;;;;;7.07;3.65;;;3.80;99.90;;;;;;5072265;28;20439;-83
2023/04/19 02:53:42;;;;;;;6.68;3.30;;;3.90;99.90;;;;;;5091065;28;20169;-82
2023/04/19 02:56:08;;;;;;;5.90;2.88;;;3.90;99.90;;;;;;5104294;28;20043;-82
2023/04/19 02:58:34;;;;;;;4.57;3.22;;;3.90;99.90;;;;;;5098179;28;20024;-80
2023/04/19 03:00:59;;;;;;;5.75;3.45;;;3.90;99.90;;;;;;5080667;28;20090;-81
2023/04/19 03:03:25;;;;;;;6.65;3.33;;;3.90;99.90;;;;;;5086503;28;20012;-81
2023/04/19 03:05:51;;;;;;;5.00;2.85;;;3.90;99.90;;;;;;5074665;28;20025;-82
2023/04/19 03:08:17;;;;;;;7.15;3.38;;;3.90;99.90;;;;;;5080243;28;20030;-80
2023/04/19 03:10:42;;;;;;;7.55;3.00;;;3.90;99.90;;;;;;5100245;28;20017;-83
2023/04/19 03:13:08;;;;;;;5.78;3.10;;;3.80;99.90;;;;;;5087178;28;20814;-82
2023/04/19 03:15:33;;;;;;;5.55;3.22;;;3.80;99.90;;;;;;5081394;28;20027;-81
2023/04/19 03:17:59;;;;;;;4.57;3.55;;;3.80;99.90;;;;;;5086607;28;20044;-81
2023/04/19 03:20:25;;;;;;;5.38;2.97;;;3.80;99.90;;;;;;5083199;28;20031;-83
2023/04/19 03:22:51;;;;;;;6.78;3.47;;;3.80;99.90;;;;;;5108394;28;20015;-83
2023/04/19 03:25:16;;;;;;;4.03;2.67;;;3.80;99.90;;;;;;5115984;28;20029;-81
2023/04/19 03:27:44;;;;;;;5.53;3.65;;;3.70;99.90;;;;;;5091080;28;20024;-82
2023/04/19 03:30:11;;;;;;;5.50;3.08;;;3.70;99.90;;;;;;5103480;28;20051;-81
2023/04/19 03:32:36;;;;;;;6.07;3.53;;;3.70;99.90;;;;;;5101286;28;20028;-82
2023/04/19 03:35:02;;;;;;;6.43;3.70;;;3.70;99.90;;;;;;5107736;28;20020;-83
2023/04/19 03:37:28;;;;;;;3.45;2.92;;;3.70;99.90;;;;;;5094458;28;20028;-82
2023/04/19 03:39:53;;;;;;;5.10;3.08;;;3.70;99.90;;;;;;5079491;28;20066;-83
2023/04/19 03:42:19;;;;;;;4.07;3.20;;;3.70;99.90;;;;;;5078144;28;20166;-82
2023/04/19 03:44:45;;;;;;;3.30;2.50;;;3.70;99.90;;;;;;5095974;28;20482;-82
2023/04/19 03:47:10;;;;;;;7.97;2.92;;;3.60;99.90;;;;;;5074704;28;20212;-81
2023/04/19 03:49:36;;;;;;;4.15;3.00;;;3.60;99.90;;;;;;5080372;28;20029;-81
2023/04/19 03:52:01;;;;;;;5.40;2.95;;;3.60;99.90;;;;;;5090781;28;20032;-81
2023/04/19 03:54:27;;;;;;;3.97;3.00;;;3.60;99.90;;;;;;5104410;28;20031;-82
2023/04/19 03:56:52;;;;;;;3.38;2.80;;;3.60;99.90;;;;;;5091143;28;20017;-82
2023/04/19 03:59:18;;;;;;;3.92;2.65;;;3.60;99.90;;;;;;5099492;28;20023;-82
2023/04/19 04:01:43;;;;;;;4.10;3.40;;;3.60;99.90;;;;;;5090538;28;20036;-82
2023/04/19 04:04:10;;;;;;;4.00;3.28;;;3.60;99.90;;;;;;5080232;28;20031;-81
2023/04/19 04:06:36;;;;;;;7.68;3.40;;;3.60;99.90;;;;;;5083597;28;20039;-80
2023/04/19 04:11:31;;;;;;;4.63;2.38;;;3.50;99.90;;;;;;5032291;28;20510;-60
2023/04/19 04:13:56;;;;;;;6.20;3.22;;;3.50;99.90;;;;;;5035285;28;20025;-59
2023/04/19 04:16:22;;;;;;;5.35;2.67;;;3.50;99.90;;;;;;5031454;28;20037;-60
2023/04/19 04:18:47;;;;;;;2.63;2.42;;;3.50;99.90;;;;;;5032926;28;20434;-60
2023/04/19 04:21:13;;;;;;;4.95;3.15;;;3.50;99.90;;;;;;5054089;22;20043;-48
2023/04/19 04:23:38;;;;;;;4.00;2.55;;;3.50;99.90;;;;;;5044811;28;20773;-46
2023/04/19 04:26:05;;;;;;;3.70;2.80;;;3.40;99.90;;;;;;5066957;28;20359;-48
2023/04/19 04:28:31;;;;;;;4.43;3.08;;;3.40;99.90;;;;;;5047962;28;20024;-48
2023/04/19 04:30:57;;;;;;;3.35;2.00;;;3.50;99.90;;;;;;5050988;28;20021;-46
2023/04/19 04:33:26;;;;;;;4.70;2.55;;;3.50;99.90;;;;;;5047848;28;20425;-49
2023/04/19 04:35:53;;;;;;;3.90;2.35;;;3.50;99.90;;;;;;5044474;28;20549;-50
2023/04/19 04:38:19;;;;;;;2.80;2.55;;;3.60;99.90;;;;;;5048853;28;20094;-48
2023/04/19 04:40:54;;;;;;;4.38;2.20;;;3.60;99.90;;;;;;5048771;28;20017;-51
2023/04/19 04:43:21;;;;;;;4.60;2.65;;;3.60;99.90;;;;;;5042543;28;20059;-48
2023/04/19 04:45:47;;;;;;;4.07;2.65;;;3.60;99.90;;;;;;5048224;28;20023;-49
2023/04/19 04:48:13;;;;;;;4.13;2.53;;;3.60;99.90;;;;;;5043396;28;20081;-50
2023/04/19 04:50:38;;;;;;;6.97;2.78;;;3.60;99.90;;;;;;5049315;28;20025;-49
2023/04/19 04:53:04;;;;;;;5.53;2.20;;;3.60;99.90;;;;;;5045028;28;20150;-48
2023/04/19 04:55:29;;;;;;;6.22;2.60;;;3.60;99.90;;;;;;5049903;28;20033;-48
2023/04/19 04:57:55;;;;;;;4.68;2.03;;;3.70;99.90;;;;;;5043832;28;20403;-50
2023/04/19 05:00:21;;;;;;;4.55;2.38;;;3.70;99.90;;;;;;5047451;28;20017;-48
2023/04/19 05:02:47;;;;;;;5.15;2.90;;;3.70;99.90;;;;;;5044275;28;20079;-51
2023/04/19 05:05:12;;;;;;;4.50;2.47;;;3.70;99.90;;;;;;5046926;28;20033;-49
2023/04/19 05:07:38;;;;;;;4.72;2.20;;;3.80;99.90;;;;;;5049869;28;20024;-51
2023/04/19 05:10:05;;;;;;;3.13;1.90;;;3.80;99.90;;;;;;5044512;28;20025;-48
2023/04/19 05:12:30;;;;;;;3.00;2.30;;;3.90;99.90;;;;;;5049755;28;20032;-50
2023/04/19 05:14:56;;;;;;;2.22;1.50;;;3.90;99.90;;;;;;5045187;28;20025;-49
2023/04/19 05:17:21;;;;;;;2.15;1.95;;;4.00;99.90;;;;;;5049590;28;20395;-48
2023/04/19 05:19:47;;;;;;;3.10;2.60;;;4.10;99.90;;;;;;5044462;28;20032;-49
2023/04/19 05:22:12;;;;;;;4.40;2.22;;;4.10;99.90;;;;;;5044535;28;20081;-49
2023/04/19 05:24:39;;;;;;;3.40;2.22;;;4.20;99.90;;;;;;5043157;28;20048;-50
2023/04/19 05:27:05;;;;;;;2.25;1.60;;;4.20;99.90;;;;;;5048110;28;20092;-48
2023/04/19 05:29:31;;;;;;;2.22;1.85;;;4.30;99.90;;;;;;5047845;28;20108;-48
2023/04/19 05:31:57;;;;;;;3.63;1.85;;;4.30;99.90;;;;;;5048992;28;20033;-47
2023/04/19 05:34:23;;;;;;;2.15;1.38;;;4.40;99.90;;;;;;5049115;28;20028;-49
2023/04/19 05:36:48;;;;;;;4.63;2.13;;;4.50;99.90;;;;;;5047536;28;20049;-48
2023/04/19 05:39:14;;;;;;;2.50;2.00;;;4.60;99.90;;;;;;5046088;28;20033;-49
2023/04/19 05:41:39;;;;;;;1.83;1.65;;;4.70;99.90;;;;;;5049098;28;20063;-48
2023/04/19 05:44:05;;;;;;;4.18;1.90;;;4.80;99.90;;;;;;5048303;28;20024;-49
2023/04/19 05:46:31;;;;;;;3.97;2.10;;;4.80;99.90;;;;;;5048943;28;20009;-47
2023/04/19 05:48:57;;;;;;;4.43;1.67;;;4.90;99.90;;;;;;5048896;28;20041;-47
2023/04/19 05:51:22;;;;;;;2.35;1.38;;;5.00;99.90;;;;;;5048582;28;20706;-48
2023/04/19 05:53:48;;;;;;;1.77;1.60;;;5.10;99.90;;;;;;5048703;28;20712;-49
2023/04/19 05:56:13;;;;;;;2.40;1.67;;;5.20;99.90;;;;;;5048910;28;20033;-49
2023/04/19 05:58:39;;;;;;;2.85;1.80;;;5.30;99.90;;;;;;5048877;28;20032;-48
2023/04/19 06:01:05;;;;;;;2.13;1.67;;;5.40;99.90;;;;;;5048120;28;20407;-49
2023/04/19 06:03:32;;;;;;;4.57;2.03;;;5.40;99.90;;;;;;5048846;28;20474;-51
2023/04/19 06:05:58;;;;;;;4.15;2.00;;;5.50;99.90;;;;;;5043220;28;20534;-48
2023/04/19 06:08:23;;;;;;;1.80;1.33;;;5.60;99.90;;;;;;5043577;28;20045;-49
2023/04/19 06:10:49;;;;;;;5.32;1.35;;;5.60;99.90;;;;;;5047744;28;20025;-51
2023/04/19 06:13:15;;;;;;;2.42;1.55;;;5.70;99.90;;;;;;5047000;28;20418;-51
2023/04/19 06:15:41;;;;;;;2.05;1.63;;;5.80;99.90;;;;;;5047110;28;20029;-49
2023/04/19 06:18:09;;;;;;;2.05;1.48;;;5.90;99.90;;;;;;5048151;28;20528;-48
2023/04/19 06:20:37;;;;;;;2.55;1.80;;;6.00;99.90;;;;;;5045848;28;20025;-49
2023/04/19 06:23:02;;;;;;;2.63;1.77;;;6.00;99.90;;;;;;5047970;28;20116;-52
2023/04/19 06:25:28;;;;;;;2.80;1.58;;;6.10;99.90;;;;;;5047336;28;20092;-50
2023/04/19 06:27:53;;;;;;;2.15;1.50;;;6.10;99.90;;;;;;5046143;28;20032;-50
2023/04/19 06:30:19;;;;;;;2.30;1.75;;;6.20;99.90;;;;;;5047311;28;20483;-49
2023/04/19 06:32:45;;;;;;;1.63;1.30;;;6.30;99.90;;;;;;5046651;28;20082;-49
2023/04/19 06:35:10;;;;;;;2.88;1.42;;;6.40;99.90;;;;;;5041147;28;20391;-51
2023/04/19 06:37:36;;;;;;;3.15;1.42;;;6.50;99.90;;;;;;5047507;28;20103;-51
2023/04/19 06:40:04;;;;;;;2.15;1.52;;;6.60;99.90;;;;;;5046489;28;20028;-49
2023/04/19 06:42:29;;;;;;;3.70;1.35;;;6.70;99.90;;;;;;5047938;28;20021;-49
2023/04/19 06:44:56;;;;;;;2.65;1.40;;;6.80;99.90;;;;;;5047183;28;20025;-49
2023/04/19 06:47:22;;;;;;;1.33;1.23;;;6.90;99.90;;;;;;5046513;28;20025;-50
2023/04/19 06:49:47;;;;;;;1.80;1.38;;;7.00;99.90;;;;;;5045874;28;20078;-50
2023/04/19 06:52:13;;;;;;;3.20;1.17;;;7.20;99.90;;;;;;5047644;28;20486;-48
2023/04/19 06:54:39;;;;;;;1.58;1.33;;;7.40;99.90;;;;;;5042929;28;20048;-49
2023/04/19 06:57:04;;;;;;;1.15;1.02;;;7.60;99.90;;;;;;5046781;28;20033;-49
2023/04/19 06:59:31;;;;;;;2.40;1.45;;;7.80;99.90;;;;;;5046059;28;20047;-48
2023/04/19 07:01:57;;;;;;;1.27;0.90;;;8.00;99.90;;;;;;5046524;28;20028;-50
2023/04/19 07:04:23;;;;;;;2.83;1.05;;;8.10;99.90;;;;;;5045559;28;20185;-52
2023/04/19 07:06:49;;;;;;;2.83;1.40;;;8.20;99.90;;;;;;5047246;28;20086;-50
2023/04/19 07:09:15;;;;;;;2.00;1.17;;;8.40;99.90;;;;;;5046154;28;20025;-54
2023/04/19 07:11:40;;;;;;;1.75;1.00;;;8.60;99.90;;;;;;5043800;28;20079;-52
2023/04/19 07:14:06;;;;;;;1.70;0.80;;;8.80;99.90;;;;;;5044643;28;20091;-49
2023/04/19 07:16:32;;;;;;;1.95;1.23;;;8.90;99.90;;;;;;5042538;28;20029;-49
2023/04/19 07:18:57;;;;;;;1.77;0.93;;;9.00;99.90;;;;;;5046729;28;20401;-51
2023/04/19 07:21:25;;;;;;;1.08;0.80;;;9.10;99.90;;;;;;5042141;28;20482;-52
2023/04/19 07:23:51;;;;;;;0.80;0.68;;;9.30;99.90;;;;;;5046928;28;20016;-50
2023/04/19 07:26:16;;;;;;;2.80;0.73;;;9.50;99.90;;;;;;5034943;28;20032;-48
2023/04/19 07:28:42;;;;;;;1.15;0.93;;;9.60;99.90;;;;;;5047413;28;20179;-50
2023/04/19 07:31:14;;;;;;;1.75;0.68;;;9.80;99.90;;;;;;5045140;28;20049;-46
2023/04/19 07:33:40;;;;;;;1.52;0.80;;;9.90;99.90;;;;;;5046813;28;20475;-47
2023/04/19 07:36:06;;;;;;;1.17;0.80;;;10.20;99.90;;;;;;5047415;28;20031;-50
2023/04/19 07:38:31;;;;;;;1.85;0.50;;;10.30;99.90;;;;;;5046011;28;20036;-49
2023/04/19 07:40:57;;;;;;;0.80;0.70;;;10.30;99.90;;;;;;5045391;28;20024;-49
2023/04/19 07:43:22;;;;;;;1.25;0.70;;;10.40;99.30;;;;;;5044480;28;20025;-49
2023/04/19 07:45:48;;;;;;;1.73;0.75;;;10.30;99.20;;;;;;5046254;28;20343;-50
2023/04/19 07:48:13;;;;;;;3.20;0.73;;;10.40;99.60;;;;;;5044494;28;20064;-46
2023/04/19 07:50:39;;;;;;;0.93;0.70;;;10.50;99.20;;;;;;5045013;28;20088;-47
2023/04/19 07:53:04;;;;;;;0.77;0.77;;;10.60;98.70;;;;;;5046662;28;20433;-49
2023/04/19 07:55:30;;;;;;;0.77;0.63;;;10.70;99.40;;;;;;5046489;28;20027;-50
2023/04/19 07:57:55;;;;;;;0.90;0.90;;;11.00;98.50;;;;;;5045725;28;20021;-46
2023/04/19 08:00:21;;;;;;;0.70;0.55;;;11.00;97.00;;;;;;5045958;28;20138;-50
2023/04/19 08:02:47;;;;;;;1.95;0.85;;;11.10;96.90;;;;;;5044360;28;20025;-46
2023/04/19 08:05:17;;;;;;;1.73;0.93;;;11.10;95.90;;;;;;5046137;28;20033;-47
2023/04/19 08:07:43;;;;;;;1.08;0.95;;;11.20;96.50;;;;;;5045164;28;20033;-49
2023/04/19 08:10:09;;;;;;;0.95;0.77;;;11.30;96.00;;;;;;5049941;28;20137;-51
2023/04/19 08:12:35;;;;;;;0.85;0.75;;;11.40;95.80;;;;;;5047944;28;20729;-47
2023/04/19 08:15:02;;;;;;;0.93;0.50;;;11.40;96.00;;;;;;5048865;28;20102;-49
2023/04/19 08:17:28;;;;;;;1.23;0.82;;;11.60;95.70;;;;;;5049011;28;20044;-48
2023/04/19 08:19:53;;;;;;;0.70;0.60;;;11.80;94.10;;;;;;5047831;28;20288;-49
2023/04/19 08:22:20;;;;;;;1.02;0.68;;;11.80;95.30;;;;;;5050039;28;20099;-52
2023/04/19 08:24:47;;;;;;;1.27;0.82;;;12.10;95.10;;;;;;5050079;28;20028;-52
2023/04/19 08:27:13;;;;;;;1.73;0.85;;;12.20;93.50;;;;;;5049108;28;20045;-53
2023/04/19 08:29:39;;;;;;;1.77;1.08;;;12.10;93.70;;;;;;5050076;28;20061;-46
2023/04/19 08:32:05;;;;;;;1.00;0.75;;;12.10;93.80;;;;;;5048653;28;20029;-49
2023/04/19 08:34:33;;;;;;;0.93;0.80;;;12.20;93.10;;;;;;5047717;28;20383;-48
2023/04/19 08:36:59;;;;;;;0.80;0.75;;;12.10;92.60;;;;;;5050134;28;20032;-48
2023/04/19 08:39:24;;;;;;;1.92;1.00;;;12.10;93.30;;;;;;5047274;28;20408;-49
2023/04/19 08:41:50;;;;;;;2.00;1.13;;;12.40;92.40;;;;;;5050457;28;20060;-46
2023/04/19 08:44:17;;;;;;;2.17;0.70;;;12.40;93.20;;;;;;5046041;28;20021;-50
2023/04/19 08:46:44;;;;;;;3.28;0.70;;;12.60;93.10;;;;;;5043941;28;20028;-47
2023/04/19 08:49:11;;;;;;;1.92;0.80;;;12.60;91.60;;;;;;5049888;28;20021;-49
2023/04/19 08:51:38;;;;;;;3.80;0.90;;;12.80;90.60;;;;;;5044024;28;20063;-48
2023/04/19 08:54:06;;;;;;;1.60;0.80;;;12.80;91.70;;;;;;5050317;28;20075;-47
2023/04/19 08:56:32;;;;;;;1.15;0.75;;;12.60;90.30;;;;;;5046961;28;20025;-47
2023/04/19 08:58:57;;;;;;;2.53;1.00;;;12.80;90.50;;;;;;5045918;28;20027;-47
2023/04/19 09:01:23;;;;;;;0.80;0.60;;;12.90;91.10;;;;;;5047679;28;20037;-46
2023/04/19 09:03:49;;;;;;;2.75;0.90;;;12.70;89.10;;;;;;5051031;28;20021;-47
2023/04/19 09:06:15;;;;;;;1.58;0.90;;;12.80;91.20;;;;;;5051476;28;20560;-49
2023/04/19 09:08:41;;;;;;;2.30;0.90;;;13.00;89.50;;;;;;5051511;28;20032;-49
2023/04/19 09:11:07;;;;;;;1.02;0.93;;;13.00;90.70;;;;;;5049438;28;20028;-49
2023/04/19 09:13:37;;;;;;;1.40;0.93;;;13.00;90.00;;;;;;5046452;28;20116;-49
2023/04/19 09:16:03;;;;;;;1.30;0.80;;;13.00;90.30;;;;;;5048150;28;20671;-49
2023/04/19 09:18:29;;;;;;;1.08;0.98;;;12.60;89.80;;;;;;5048803;28;20048;-50
2023/04/19 09:20:59;;;;;;;1.58;1.40;;;12.40;90.50;;;;;;5049735;28;20491;-47
2023/04/19 09:23:27;;;;;;;1.42;0.88;;;12.20;90.80;;;;;;5046820;28;20037;-49
2023/04/19 09:26:01;;;;;;;1.35;1.10;;;12.20;91.60;;;;;;5048330;28;20139;-51
2023/04/19 09:28:27;;;;;;;4.03;1.08;;;12.30;90.30;;;;;;5047172;28;20036;-50
2023/04/19 09:30:54;;;;;;;3.22;1.10;;;12.50;90.40;;;;;;5047837;28;20064;-48
2023/04/19 09:33:38;;;;;;;1.48;1.35;;;13.00;91.00;;;;;;5047580;28;20033;-48
2023/04/19 09:36:05;;;;;;;0.70;0.70;;;13.10;86.30;;;;;;5046400;28;20024;-49
2023/04/19 09:38:46;;;;;;;2.97;1.30;;;13.30;87.70;;;;;;5049189;28;20505;-48
2023/04/19 09:41:12;;;;;;;2.53;1.27;;;13.40;84.30;;;;;;5042528;28;20017;-52
2023/04/19 09:43:37;;;;;;;3.13;1.25;;;13.50;81.80;;;;;;5049454;28;20032;-51
2023/04/19 09:46:03;;;;;;;1.60;0.95;;;13.50;77.90;;;;;;5046621;28;20033;-50
2023/04/19 09:48:28;;;;;;;1.25;1.15;;;13.90;79.60;;;;;;5049425;28;20395;-49
2023/04/19 09:50:59;;;;;;;4.30;1.35;;;13.60;76.50;;;;;;5049401;28;20510;-51
2023/04/19 09:53:26;;;;;;;1.40;1.25;;;13.40;75.30;;;;;;5049421;28;20025;-50
2023/04/19 09:55:52;;;;;;;2.50;1.33;;;13.30;76.70;;;;;;5046275;28;20598;-48
2023/04/19 09:58:19;;;;;;;3.42;1.10;;;13.10;71.60;;;;;;5049884;28;20036;-49
2023/04/19 10:00:46;;;;;;;6.22;1.20;;;13.20;74.00;;;;;;5048046;28;20037;-49
2023/04/19 10:03:14;;;;;;;2.13;1.30;;;13.40;76.30;;;;;;5050306;28;20051;-53
2023/04/19 10:05:41;;;;;;;2.75;1.30;;;13.60;71.90;;;;;;5047494;28;20017;-52
2023/04/19 10:08:07;;;;;;;1.85;1.00;;;13.50;69.40;;;;;;5041895;28;20028;-48
2023/04/19 10:10:33;;;;;;;1.65;1.50;;;13.40;68.10;;;;;;5047524;28;20032;-49
2023/04/19 10:13:05;;;;;;;1.83;1.45;;;13.30;68.00;;;;;;5049858;28;20025;-48
2023/04/19 10:15:32;;;;;;;3.83;1.38;;;13.20;68.60;;;;;;5045975;28;20017;-48
2023/04/19 10:17:59;;;;;;;3.33;1.42;;;13.20;68.10;;;;;;5050051;28;20017;-48
2023/04/19 10:20:33;;;;;;;4.40;1.45;;;13.20;69.10;;;;;;5044502;28;20120;-51
2023/04/19 10:22:59;;;;;;;3.47;1.42;;;13.30;70.00;;;;;;5069521;23;20226;-54
2023/04/19 10:25:29;;;;;;;1.67;1.38;;;13.30;67.60;;;;;;5044896;28;20077;-58
2023/04/19 10:27:55;;;;;;;2.33;1.33;;;13.40;68.10;;;;;;5045637;28;20029;-57
2023/04/19 10:30:22;;;;;;;2.42;1.38;;;13.50;67.90;;;;;;5041832;28;20024;-56
2023/04/19 10:32:54;;;;;;;3.20;1.40;;;13.50;67.10;;;;;;5031524;28;20022;-56
2023/04/19 10:35:21;;;;;;;2.47;1.30;;;13.60;67.50;;;;;;5028978;28;20024;-61
2023/04/19 10:38:05;;;;;;;4.72;1.38;;;13.70;65.70;;;;;;5028045;28;20519;-58
2023/04/19 10:41:02;;;;;;;2.17;1.88;;;13.90;65.70;;;;;;5027839;28;20021;-57
2023/04/19 10:43:34;;;;;;;3.25;2.17;;;14.00;60.60;;;;;;5009949;28;20065;-59
2023/04/19 10:46:08;;;;;;;2.28;1.58;;;14.00;63.40;;;;;;5028884;28;20029;-59
2023/04/19 10:48:38;;;;;;;2.67;1.40;;;13.80;61.60;;;;;;5028647;28;20048;-56
2023/04/19 10:51:15;;;;;;;1.80;1.50;;;13.70;61.80;;;;;;5027741;28;20104;-57
2023/04/19 10:53:48;;;;;;;3.00;1.65;;;13.70;61.90;;;;;;5029230;28;20025;-56
2023/04/19 10:56:18;;;;;;;2.95;1.45;;;13.70;63.30;;;;;;5021713;28;20179;-58
2023/04/19 10:58:59;;;;;;;3.58;1.60;;;13.90;63.80;;;;;;5028793;28;20028;-59
2023/04/19 11:01:32;;;;;;;1.48;1.38;;;14.00;61.70;;;;;;5028640;28;20021;-59
2023/04/19 11:03:58;;;;;;;2.70;1.63;;;13.70;59.10;;;;;;5028685;28;20096;-58
2023/04/19 11:06:26;;;;;;;1.55;1.45;;;13.40;58.80;;;;;;5028800;28;20125;-55
2023/04/19 11:08:52;;;;;;;2.45;1.45;;;13.40;57.70;;;;;;5028765;28;20043;-57
2023/04/19 11:11:20;;;;;;;4.05;1.60;;;13.30;58.60;;;;;;5027990;28;20033;-58
2023/04/19 11:13:49;;;;;;;1.67;1.42;;;13.50;58.80;;;;;;5026561;28;20053;-60
2023/04/19 11:16:14;;;;;;;1.75;1.63;;;13.50;60.20;;;;;;5028480;28;20055;-58
2023/04/19 11:18:40;;;;;;;4.90;1.73;;;13.50;56.90;;;;;;5027417;28;20049;-57
2023/04/19 11:21:05;;;;;;;3.67;1.63;;;13.50;56.60;;;;;;5027897;28;20294;-58
2023/04/19 11:23:31;;;;;;;2.05;1.65;;;13.50;58.30;;;;;;5028312;28;20033;-57
2023/04/19 11:25:57;;;;;;;2.25;1.77;;;13.60;57.80;;;;;;5028047;28;20527;-58
2023/04/19 11:28:23;;;;;;;4.05;1.60;;;13.50;56.00;;;;;;5028221;28;20171;-56
2023/04/19 11:30:49;;;;;;;2.25;1.98;;;13.40;55.20;;;;;;5027417;28;20105;-60
2023/04/19 11:33:23;;;;;;;2.30;1.42;;;13.30;54.30;;;;;;5026632;28;20021;-62
2023/04/19 11:35:49;;;;;;;2.97;1.50;;;13.40;55.80;;;;;;5020274;28;20049;-54
2023/04/19 11:38:15;;;;;;;2.08;1.50;;;13.40;55.10;;;;;;5028088;28;20533;-59
2023/04/19 11:40:41;;;;;;;2.22;1.60;;;13.10;52.90;;;;;;5026440;28;20028;-56
2023/04/19 11:43:06;;;;;;;4.38;1.52;;;13.10;55.00;;;;;;5023761;28;20029;-55
2023/04/19 11:45:35;;;;;;;4.40;2.03;;;13.10;56.10;;;;;;5027920;28;20368;-58
2023/04/19 11:48:02;;;;;;;2.47;1.40;;;13.10;56.30;;;;;;5026122;28;20368;-59
2023/04/19 11:50:35;;;;;;;2.83;1.45;;;13.00;55.30;;;;;;5028077;28;20350;-52
2023/04/19 11:53:11;;;;;;;3.90;1.50;;;13.10;55.10;;;;;;5026951;28;20029;-59
2023/04/19 11:55:37;;;;;;;;;;;13.30;56.20;;;;;;5026944;28;20029;-55
2023/04/19 11:58:08;;;;;;;1.60;1.50;;;13.40;55.50;;;;;;5028163;28;19905;-55
2023/04/19 12:00:34;;;;;;;6.03;1.60;;;13.40;55.20;;;;;;5027198;28;20041;-56
2023/04/19 12:03:00;;;;;;;3.40;1.42;;;13.40;55.30;;;;;;5028159;28;20040;-59
2023/04/19 12:05:26;;;;;;;3.53;1.42;;;13.30;54.20;;;;;;5028116;28;20403;-58
2023/04/19 12:07:59;;;;;;;3.15;1.52;;;13.40;56.30;;;;;;5026946;28;20028;-53
2023/04/19 12:10:24;;;;;;;1.77;1.40;;;13.20;54.10;;;;;;5027549;28;20433;-55
2023/04/19 12:12:50;;;;;;;2.42;1.40;;;13.20;54.80;;;;;;5027894;28;20064;-55
2023/04/19 12:15:16;;;;;;;3.33;1.60;;;13.20;52.40;;;;;;5026624;28;20071;-57
2023/04/19 12:18:01;;;;;;;1.48;1.38;;;13.10;52.70;;;;;;5027651;28;20033;-56
2023/04/19 12:20:34;;;;;;;3.03;1.33;;;12.90;53.00;;;;;;5027851;28;20087;-56
2023/04/19 12:23:01;;;;;;;1.65;0.88;;;12.80;54.70;;;;;;5026723;28;20057;-56
2023/04/19 12:25:32;;;;;;;1.92;1.10;;;12.80;55.50;;;;;;5027616;28;20024;-56
2023/04/19 12:27:58;;;;;;;2.08;1.17;;;13.00;57.10;;;;;;5016943;28;20594;-59
2023/04/19 12:30:25;;;;;;;2.58;1.27;;;13.10;56.40;;;;;;5027039;28;20042;-57
2023/04/19 12:32:54;;;;;;;2.80;1.23;;;12.80;54.10;;;;;;5027153;28;20491;-58
2023/04/19 12:35:20;;;;;;;1.60;1.42;;;12.60;56.70;;;;;;5024584;28;20431;-57
2023/04/19 12:37:46;;;;;;;2.65;1.45;;;12.70;54.80;;;;;;5042152;28;20479;-56
2023/04/19 12:40:12;;;;;;;1.30;1.10;;;12.90;55.40;;;;;;5025767;28;20164;-55
2023/04/19 12:42:38;;;;;;;1.77;1.35;;;12.90;53.10;;;;;;5025872;28;20030;-57
2023/04/19 12:45:04;;;;;;;2.35;1.40;;;12.80;53.90;;;;;;5023168;28;20095;-57
2023/04/19 12:47:29;;;;;;;4.32;1.27;;;12.70;53.80;;;;;;5025980;28;20096;-58
2023/04/19 12:49:56;;;;;;;2.00;1.50;;;12.70;53.40;;;;;;5025797;28;20141;-60
2023/04/19 12:52:22;;;;;;;2.63;1.30;;;12.70;55.00;;;;;;5026104;28;20053;-57